createdAt,value
2023-04-06T00:01:49.442Z,99.90
2023-04-06T00:04:17.341Z,99.90
2023-04-06T00:06:45.072Z,99.90
2023-04-06T00:09:12.854Z,99.90
2023-04-06T00:11:41.875Z,99.90
2023-04-06T00:14:09.605Z,99.90
2023-04-06T00:16:37.547Z,99.90
2023-04-06T00:19:05.330Z,99.90
2023-04-06T00:21:33.171Z,99.90
2023-04-06T00:24:01.000Z,99.90
2023-04-06T00:26:28.722Z,99.90
2023-04-06T00:28:59.601Z,99.90
2023-04-06T00:31:27.355Z,99.90
2023-04-06T00:33:55.103Z,99.90
2023-04-06T00:36:22.892Z,99.90
2023-04-06T00:38:50.818Z,99.90
2023-04-06T00:41:19.517Z,99.90
2023-04-06T00:43:47.275Z,99.90
2023-04-06T00:46:16.458Z,99.90
2023-04-06T00:48:44.329Z,99.90
2023-04-06T00:51:12.041Z,99.90
2023-04-06T00:53:39.763Z,99.90
2023-04-06T00:56:10.658Z,99.90
2023-04-06T00:58:39.616Z,99.90
2023-04-06T01:01:07.450Z,99.90
2023-04-06T01:03:36.569Z,99.90
2023-04-06T01:06:04.586Z,99.90
2023-04-06T01:08:32.352Z,99.90
2023-04-06T01:11:01.966Z,99.90
2023-04-06T01:13:29.810Z,99.90
2023-04-06T01:15:57.762Z,99.90
2023-04-06T01:18:28.250Z,99.90
2023-04-06T01:20:57.621Z,99.90
2023-04-06T01:23:26.731Z,99.90
2023-04-06T01:25:54.558Z,99.90
2023-04-06T01:28:22.273Z,99.90
2023-04-06T01:30:50.112Z,99.90
2023-04-06T01:33:17.916Z,99.90
2023-04-06T01:35:46.039Z,99.90
2023-04-06T01:38:13.781Z,99.90
2023-04-06T01:40:42.852Z,99.90
2023-04-06T01:43:10.562Z,99.90
2023-04-06T01:45:38.345Z,99.90
2023-04-06T01:48:06.674Z,99.90
2023-04-06T01:50:34.430Z,99.90
2023-04-06T01:53:02.175Z,99.90
2023-04-06T01:55:29.965Z,99.90
2023-04-06T01:57:59.076Z,99.90
2023-04-06T02:00:26.805Z,99.90
2023-04-06T02:02:54.632Z,99.90
2023-04-06T02:05:22.400Z,99.90
2023-04-06T02:07:50.263Z,99.90
2023-04-06T02:10:18.030Z,99.90
2023-04-06T02:12:45.875Z,99.90
2023-04-06T02:15:15.486Z,99.90
2023-04-06T02:17:43.818Z,99.90
2023-04-06T02:20:12.046Z,99.90
2023-04-06T02:22:39.793Z,99.90
2023-04-06T02:25:08.079Z,99.90
2023-04-06T02:27:36.451Z,99.90
2023-04-06T02:30:04.631Z,99.90
2023-04-06T02:32:33.773Z,99.90
2023-04-06T02:35:02.215Z,99.90
2023-04-06T02:37:29.944Z,99.90
2023-04-06T02:39:57.671Z,99.90
2023-04-06T02:42:25.456Z,99.90
2023-04-06T02:44:53.216Z,99.90
2023-04-06T02:47:20.989Z,99.90
2023-04-06T02:49:50.059Z,99.90
2023-04-06T02:52:18.884Z,99.90
2023-04-06T02:54:46.615Z,99.90
2023-04-06T02:57:14.368Z,99.90
2023-04-06T02:59:42.159Z,99.90
2023-04-06T03:02:10.032Z,99.90
2023-04-06T03:04:37.813Z,99.90
2023-04-06T03:07:06.913Z,99.90
2023-04-06T03:09:35.276Z,99.90
2023-04-06T03:12:03.305Z,99.90
2023-04-06T03:14:31.092Z,99.90
2023-04-06T03:16:58.855Z,99.90
2023-04-06T03:19:26.621Z,99.90
2023-04-06T03:21:54.370Z,99.90
2023-04-06T03:24:23.440Z,99.90
2023-04-06T03:26:51.165Z,99.90
2023-04-06T03:29:18.916Z,99.90
2023-04-06T03:31:46.725Z,99.90
2023-04-06T03:34:14.496Z,99.90
2023-04-06T03:36:42.280Z,99.90
2023-04-06T03:39:10.241Z,99.90
2023-04-06T03:41:39.710Z,99.90
2023-04-06T03:44:07.818Z,99.90
2023-04-06T03:46:35.652Z,99.90
2023-04-06T03:49:03.440Z,99.90
2023-04-06T03:51:31.768Z,99.90
2023-04-06T03:53:59.486Z,99.90
2023-04-06T03:56:27.510Z,99.90
2023-04-06T03:58:56.693Z,99.90
2023-04-06T04:01:24.656Z,99.90
2023-04-06T04:03:53.237Z,99.90
2023-04-06T04:06:21.537Z,99.90
2023-04-06T04:08:49.268Z,99.90
2023-04-06T04:11:17.502Z,99.90
2023-04-06T04:13:45.442Z,99.90
2023-04-06T04:16:14.656Z,99.90
2023-04-06T04:18:44.569Z,99.90
2023-04-06T04:21:12.337Z,99.90
2023-04-06T04:23:40.216Z,99.90
2023-04-06T04:26:07.985Z,99.90
2023-04-06T04:28:35.796Z,99.90
2023-04-06T04:31:03.540Z,99.90
2023-04-06T04:33:32.604Z,99.90
2023-04-06T04:36:00.385Z,99.90
2023-04-06T04:38:28.152Z,99.90
2023-04-06T04:40:56.009Z,99.90
2023-04-06T04:43:23.757Z,99.90
2023-04-06T04:45:51.528Z,99.90
2023-04-06T04:48:19.284Z,99.90
2023-04-06T04:50:48.344Z,99.90
2023-04-06T04:53:16.073Z,99.90
2023-04-06T04:55:43.815Z,99.90
2023-04-06T04:58:15.277Z,99.90
2023-04-06T05:00:43.048Z,99.90
2023-04-06T05:03:11.417Z,99.90
2023-04-06T05:05:39.194Z,99.90
2023-04-06T05:08:08.274Z,99.90
2023-04-06T05:10:37.071Z,99.90
2023-04-06T05:13:04.834Z,99.90
2023-04-06T05:15:32.622Z,99.90
2023-04-06T05:18:00.985Z,99.90
2023-04-06T05:20:29.249Z,99.90
2023-04-06T05:22:56.962Z,99.90
2023-04-06T05:25:29.197Z,99.90
2023-04-06T05:27:57.145Z,99.90
2023-04-06T05:30:25.386Z,99.90
2023-04-06T05:32:53.283Z,99.90
2023-04-06T05:35:21.286Z,99.90
2023-04-06T05:37:49.061Z,99.90
2023-04-06T05:40:16.973Z,99.90
2023-04-06T05:42:46.034Z,99.90
2023-04-06T05:45:17.619Z,99.90
2023-04-06T05:47:46.412Z,99.90
2023-04-06T05:50:16.074Z,99.90
2023-04-06T05:52:46.185Z,99.90
2023-04-06T05:55:13.988Z,99.90
2023-04-06T05:57:41.857Z,99.90
2023-04-06T06:00:12.575Z,99.90
2023-04-06T06:02:40.816Z,99.90
2023-04-06T06:05:09.468Z,99.90
2023-04-06T06:07:37.295Z,99.90
2023-04-06T06:10:05.723Z,99.90
2023-04-06T06:12:33.474Z,99.90
2023-04-06T06:15:01.508Z,99.90
2023-04-06T06:17:30.623Z,99.90
2023-04-06T06:19:58.390Z,99.90
2023-04-06T06:22:26.149Z,99.90
2023-04-06T06:24:53.917Z,99.90
2023-04-06T06:27:21.784Z,99.90
2023-04-06T06:29:49.569Z,99.90
2023-04-06T06:32:17.408Z,99.90
2023-04-06T06:34:46.514Z,99.90
2023-04-06T06:37:14.245Z,99.90
2023-04-06T06:39:42.045Z,99.90
2023-04-06T06:42:14.606Z,99.90
2023-04-06T06:44:42.587Z,99.90
2023-04-06T06:47:10.341Z,99.90
2023-04-06T06:49:38.128Z,99.90
2023-04-06T06:52:07.304Z,99.90
2023-04-06T06:54:35.059Z,99.90
2023-04-06T06:57:02.788Z,99.90
2023-04-06T06:59:30.590Z,99.90
2023-04-06T07:01:58.499Z,99.90
2023-04-06T07:04:26.278Z,99.90
2023-04-06T07:06:54.090Z,99.90
2023-04-06T07:09:23.182Z,99.90
2023-04-06T07:11:51.023Z,99.90
2023-04-06T07:14:18.812Z,99.90
2023-04-06T07:16:47.918Z,99.90
2023-04-06T07:19:15.765Z,99.90
2023-04-06T07:21:43.613Z,99.90
2023-04-06T07:24:11.550Z,99.90
2023-04-06T07:26:40.754Z,99.90
2023-04-06T07:29:08.527Z,99.90
2023-04-06T07:31:37.009Z,99.90
2023-04-06T07:34:04.826Z,99.90
2023-04-06T07:36:32.571Z,99.90
2023-04-06T07:39:00.282Z,99.90
2023-04-06T07:41:28.079Z,99.90
2023-04-06T07:43:57.205Z,99.90
2023-04-06T07:46:25.002Z,99.90
2023-04-06T07:48:52.788Z,99.90
2023-04-06T07:51:20.730Z,99.90
2023-04-06T07:53:48.719Z,99.90
2023-04-06T07:56:17.222Z,99.90
2023-04-06T07:58:45.094Z,99.90
2023-04-06T08:01:14.497Z,99.90
2023-04-06T08:03:42.374Z,99.90
2023-04-06T08:06:10.639Z,99.90
2023-04-06T08:08:38.399Z,99.90
2023-04-06T08:11:06.172Z,99.90
2023-04-06T08:13:33.921Z,99.90
2023-04-06T08:16:02.210Z,98.10
2023-04-06T08:18:31.835Z,93.30
2023-04-06T08:20:59.594Z,79.60
2023-04-06T08:23:27.444Z,63.60
2023-04-06T08:25:55.339Z,53.70
2023-04-06T08:28:23.193Z,48.50
2023-04-06T08:30:51.166Z,44.20
2023-04-06T08:33:19.007Z,42.30
2023-04-06T08:35:48.095Z,40.80
2023-04-06T08:38:15.960Z,41.20
2023-04-06T08:40:45.367Z,39.00
2023-04-06T08:43:16.401Z,36.00
2023-04-06T08:45:44.899Z,36.20
2023-04-06T08:48:13.944Z,35.30
2023-04-06T08:50:42.079Z,36.00
2023-04-06T08:53:13.051Z,34.10
2023-04-06T08:55:41.824Z,36.00
2023-04-06T08:58:10.330Z,34.60
2023-04-06T09:00:40.151Z,34.50
2023-04-06T09:03:14.445Z,33.50
2023-04-06T09:05:42.294Z,33.00
2023-04-06T09:08:11.609Z,33.50
2023-04-06T09:10:42.901Z,32.40
2023-04-06T09:13:11.104Z,33.40
2023-04-06T09:15:39.982Z,31.80
2023-04-06T09:18:08.975Z,30.80
2023-04-06T09:20:36.890Z,31.60
2023-04-06T09:23:04.916Z,31.80
2023-04-06T09:25:34.278Z,30.70
2023-04-06T09:28:03.088Z,30.40
2023-04-06T09:30:31.416Z,31.10
2023-04-06T09:33:00.979Z,30.10
2023-04-06T09:35:30.955Z,30.60
2023-04-06T09:37:58.798Z,32.40
2023-04-06T09:40:26.566Z,34.20
2023-04-06T09:42:58.512Z,36.20
2023-04-06T09:45:27.268Z,34.30
2023-04-06T09:47:57.536Z,31.40
2023-04-06T09:50:27.696Z,29.80
2023-04-06T09:52:58.531Z,27.90
2023-04-06T09:55:32.620Z,29.10
2023-04-06T09:58:08.293Z,29.20
2023-04-06T10:00:44.955Z,29.10
2023-04-06T10:03:23.141Z,28.80
2023-04-06T10:05:59.349Z,32.60
2023-04-06T10:08:31.634Z,31.20
2023-04-06T10:11:01.729Z,30.90
2023-04-06T10:13:31.143Z,29.10
2023-04-06T10:16:01.599Z,27.10
2023-04-06T10:18:29.751Z,28.30
2023-04-06T10:21:02.785Z,29.50
2023-04-06T10:23:35.584Z,29.80
2023-04-06T10:26:04.615Z,29.10
2023-04-06T10:28:36.773Z,29.70
2023-04-06T10:31:07.373Z,28.70
2023-04-06T10:33:35.604Z,28.00
2023-04-06T10:36:12.497Z,29.40
2023-04-06T10:38:42.076Z,27.90
2023-04-06T10:41:11.679Z,27.20
2023-04-06T10:43:42.153Z,27.20
2023-04-06T10:46:11.718Z,27.20
2023-04-06T10:48:41.138Z,27.10
2023-04-06T10:51:14.196Z,28.80
2023-04-06T10:53:44.045Z,28.40
2023-04-06T10:56:15.848Z,29.00
2023-04-06T10:58:48.456Z,30.90
2023-04-06T11:01:17.470Z,30.20
2023-04-06T11:03:46.756Z,30.00
2023-04-06T11:06:20.714Z,29.20
2023-04-06T11:08:48.667Z,30.70
2023-04-06T11:11:19.301Z,30.70
2023-04-06T11:13:51.264Z,32.80
2023-04-06T11:16:20.553Z,34.60
2023-04-06T11:18:53.063Z,36.10
2023-04-06T11:21:21.077Z,35.80
2023-04-06T11:23:48.798Z,35.30
2023-04-06T11:26:17.271Z,35.20
2023-04-06T11:28:45.335Z,36.60
2023-04-06T11:31:14.529Z,35.60
2023-04-06T11:33:42.318Z,37.20
2023-04-06T11:36:10.572Z,38.10
2023-04-06T11:38:41.671Z,40.40
2023-04-06T11:41:09.540Z,40.90
2023-04-06T11:43:37.382Z,41.40
2023-04-06T11:46:06.294Z,42.10
2023-04-06T11:48:46.300Z,42.10
2023-04-06T11:51:14.347Z,43.90
2023-04-06T11:53:47.469Z,42.70
2023-04-06T11:56:25.913Z,44.60
2023-04-06T11:58:54.130Z,44.00
2023-04-06T12:01:22.087Z,43.70
2023-04-06T12:03:52.042Z,43.30
2023-04-06T12:06:20.718Z,44.30
2023-04-06T12:08:48.729Z,42.80
2023-04-06T12:11:16.632Z,43.20
2023-04-06T12:13:44.823Z,43.50
2023-04-06T12:16:12.954Z,43.80
2023-04-06T12:18:40.960Z,43.80
2023-04-06T12:21:10.437Z,44.30
2023-04-06T12:23:38.442Z,43.80
2023-04-06T12:26:06.586Z,44.10
2023-04-06T12:28:41.282Z,44.80
2023-04-06T12:31:09.694Z,45.30
2023-04-06T12:33:37.493Z,45.40
2023-04-06T12:36:05.462Z,45.40
2023-04-06T12:38:34.691Z,45.10
2023-04-06T12:41:02.457Z,44.40
2023-04-06T12:43:30.304Z,43.80
2023-04-06T12:45:58.070Z,45.50
2023-04-06T12:48:25.855Z,44.30
2023-04-06T12:50:56.859Z,45.70
2023-04-06T12:53:24.690Z,45.90
2023-04-06T12:55:55.540Z,46.60
2023-04-06T12:58:24.139Z,46.70
2023-04-06T13:00:52.744Z,47.40
2023-04-06T13:03:21.003Z,47.50
2023-04-06T13:05:50.340Z,47.00
2023-04-06T13:08:19.611Z,47.30
2023-04-06T13:10:49.755Z,47.80
2023-04-06T13:13:19.452Z,49.10
2023-04-06T13:15:47.494Z,47.00
2023-04-06T13:18:15.501Z,47.70
2023-04-06T13:20:43.616Z,47.40
2023-04-06T13:23:11.659Z,46.00
2023-04-06T13:25:39.443Z,46.50
2023-04-06T13:28:07.281Z,45.90
2023-04-06T13:30:36.701Z,45.30
2023-04-06T13:33:05.729Z,45.50
2023-04-06T13:35:33.710Z,46.60
2023-04-06T13:38:01.446Z,46.30
2023-04-06T13:40:29.241Z,45.20
2023-04-06T13:42:56.961Z,45.80
2023-04-06T13:45:24.786Z,47.20
2023-04-06T13:47:53.914Z,47.40
2023-04-06T13:50:22.092Z,47.00
2023-04-06T13:52:50.594Z,45.80
2023-04-06T13:55:18.646Z,48.30
2023-04-06T13:57:46.424Z,47.50
2023-04-06T14:00:15.862Z,47.00
2023-04-06T14:02:43.801Z,46.90
2023-04-06T14:05:13.585Z,49.40
2023-04-06T14:07:41.348Z,47.30
2023-04-06T14:10:15.026Z,48.70
2023-04-06T14:12:43.522Z,46.90
2023-04-06T14:15:13.025Z,46.70
2023-04-06T14:17:41.396Z,47.50
2023-04-06T14:20:14.882Z,48.10
2023-04-06T14:22:44.456Z,48.10
2023-04-06T14:25:13.683Z,47.70
2023-04-06T14:27:41.487Z,47.70
2023-04-06T14:30:10.669Z,47.60
2023-04-06T14:32:38.676Z,48.30
2023-04-06T14:35:07.992Z,47.70
2023-04-06T14:37:36.138Z,47.70
2023-04-06T14:40:05.929Z,48.40
2023-04-06T14:42:34.705Z,48.00
2023-04-06T14:45:02.480Z,48.50
2023-04-06T14:47:30.268Z,48.90
2023-04-06T14:49:58.773Z,49.10
2023-04-06T14:52:26.514Z,49.00
2023-04-06T14:54:54.665Z,48.10
2023-04-06T14:57:23.969Z,48.90
2023-04-06T14:59:55.159Z,49.00
2023-04-06T15:02:23.208Z,49.80
2023-04-06T15:04:53.256Z,49.20
2023-04-06T15:07:21.783Z,49.60
2023-04-06T15:09:49.544Z,49.00
2023-04-06T15:12:17.284Z,49.10
2023-04-06T15:14:46.614Z,50.00
2023-04-06T15:17:14.382Z,49.40
2023-04-06T15:19:42.126Z,50.20
2023-04-06T15:22:09.948Z,50.60
2023-04-06T15:24:37.771Z,49.70
2023-04-06T15:27:05.611Z,50.00
2023-04-06T15:29:33.495Z,50.10
2023-04-06T15:32:02.929Z,50.10
2023-04-06T15:34:33.628Z,50.30
2023-04-06T15:37:04.779Z,51.50
2023-04-06T15:39:32.726Z,52.60
2023-04-06T15:42:01.104Z,51.30
2023-04-06T15:44:28.889Z,50.80
2023-04-06T15:46:56.874Z,51.30
2023-04-06T15:49:26.097Z,51.30
2023-04-06T15:51:53.985Z,51.90
2023-04-06T15:54:21.789Z,52.60
2023-04-06T15:56:50.618Z,51.20
2023-04-06T15:59:18.577Z,51.10
2023-04-06T16:01:47.411Z,50.50
2023-04-06T16:04:17.921Z,51.20
2023-04-06T16:06:47.034Z,52.50
2023-04-06T16:09:14.800Z,52.80
2023-04-06T16:11:42.655Z,53.00
2023-04-06T16:14:10.460Z,52.60
2023-04-06T16:16:38.257Z,52.90
2023-04-06T16:19:06.086Z,53.00
2023-04-06T16:21:33.782Z,52.60
2023-04-06T16:24:02.867Z,52.70
2023-04-06T16:26:31.875Z,52.20
2023-04-06T16:28:59.771Z,52.10
2023-04-06T16:31:27.627Z,52.00
2023-04-06T16:33:58.036Z,52.40
2023-04-06T16:36:27.447Z,53.20
2023-04-06T16:38:55.864Z,53.70
2023-04-06T16:41:25.396Z,54.10
2023-04-06T16:43:53.712Z,53.90
2023-04-06T16:46:21.547Z,53.90
2023-04-06T16:48:49.316Z,55.00
2023-04-06T16:51:18.748Z,56.00
2023-04-06T16:53:47.923Z,55.90
2023-04-06T16:56:16.360Z,56.00
2023-04-06T16:58:46.214Z,57.00
2023-04-06T17:01:25.275Z,56.30
2023-04-06T17:03:53.590Z,56.60
2023-04-06T17:06:22.371Z,55.90
2023-04-06T17:08:51.158Z,56.50
2023-04-06T17:11:23.499Z,56.30
2023-04-06T17:13:57.369Z,57.30
2023-04-06T17:16:27.141Z,57.70
2023-04-06T17:18:58.165Z,58.50
2023-04-06T17:21:26.335Z,59.00
2023-04-06T17:23:54.116Z,59.10
2023-04-06T17:26:22.389Z,59.00
2023-04-06T17:28:50.243Z,59.50
2023-04-06T17:31:42.996Z,59.40
2023-04-06T17:34:11.333Z,60.00
2023-04-06T17:36:39.113Z,60.90
2023-04-06T17:39:06.891Z,61.70
2023-04-06T17:41:35.012Z,62.90
2023-04-06T17:44:02.899Z,63.20
2023-04-06T17:46:30.952Z,64.20
2023-04-06T17:49:00.190Z,65.20
2023-04-06T17:51:28.167Z,65.90
2023-04-06T17:53:55.985Z,66.90
2023-04-06T17:56:24.360Z,67.80
2023-04-06T17:58:55.733Z,69.00
2023-04-06T18:01:23.485Z,71.10
2023-04-06T18:03:51.787Z,71.60
2023-04-06T18:06:24.172Z,74.20
2023-04-06T18:08:53.135Z,76.00
2023-04-06T18:11:21.967Z,86.20
2023-04-06T18:13:49.992Z,94.00
2023-04-06T18:16:20.144Z,99.80
2023-04-06T18:18:48.241Z,99.90
2023-04-06T18:21:16.156Z,99.90
2023-04-06T18:23:45.532Z,99.90
2023-04-06T18:26:17.536Z,99.90
2023-04-06T18:28:45.530Z,99.90
2023-04-06T18:31:13.439Z,99.90
2023-04-06T18:33:41.283Z,99.90
2023-04-06T18:36:09.904Z,99.90
2023-04-06T18:38:39.301Z,99.90
2023-04-06T18:41:08.450Z,99.90
2023-04-06T18:43:36.971Z,99.90
2023-04-06T18:46:05.086Z,99.90
2023-04-06T18:48:32.885Z,99.90
2023-04-06T18:51:02.023Z,99.90
2023-04-06T18:53:30.432Z,99.90
2023-04-06T18:55:58.706Z,99.90
2023-04-06T18:58:28.188Z,99.90
2023-04-06T19:00:57.396Z,99.90
2023-04-06T19:03:25.452Z,99.90
2023-04-06T19:05:53.792Z,99.90
2023-04-06T19:08:21.693Z,99.90
2023-04-06T19:10:49.431Z,99.90
2023-04-06T19:13:17.346Z,99.90
2023-04-06T19:15:46.475Z,99.90
2023-04-06T19:18:14.222Z,99.90
2023-04-06T19:20:41.943Z,99.90
2023-04-06T19:23:09.726Z,99.90
2023-04-06T19:25:37.461Z,99.90
2023-04-06T19:28:05.581Z,99.90
2023-04-06T19:30:33.364Z,99.90
2023-04-06T19:33:02.774Z,99.90
2023-04-06T19:35:30.896Z,99.90
2023-04-06T19:37:58.653Z,99.90
2023-04-06T19:40:26.438Z,99.90
2023-04-06T19:42:54.237Z,99.90
2023-04-06T19:45:22.053Z,99.90
2023-04-06T19:47:50.013Z,99.90
2023-04-06T19:50:19.089Z,99.90
2023-04-06T19:52:46.869Z,99.90
2023-04-06T19:55:14.877Z,99.90
2023-04-06T19:57:42.739Z,99.90
2023-04-06T20:00:11.671Z,99.90
2023-04-06T20:02:39.738Z,99.90
2023-04-06T20:05:08.133Z,99.90
2023-04-06T20:07:39.510Z,99.90
2023-04-06T20:10:09.599Z,99.90
2023-04-06T20:12:37.790Z,99.90
2023-04-06T20:15:06.401Z,99.90
2023-04-06T20:17:34.340Z,99.90
2023-04-06T20:20:02.222Z,99.90
2023-04-06T20:22:29.984Z,99.90
2023-04-06T20:24:59.092Z,99.90
2023-04-06T20:27:27.352Z,99.90
2023-04-06T20:29:56.051Z,99.90
2023-04-06T20:32:24.024Z,99.90
2023-04-06T20:34:52.595Z,99.90
2023-04-06T20:37:21.418Z,99.90
2023-04-06T20:39:49.262Z,99.90
2023-04-06T20:42:18.915Z,99.90
2023-04-06T20:44:46.722Z,99.90
2023-04-06T20:47:14.594Z,99.90
2023-04-06T20:49:42.395Z,99.90
2023-04-06T20:52:10.583Z,99.90
2023-04-06T20:54:38.352Z,99.90
2023-04-06T20:57:06.158Z,99.90
2023-04-06T20:59:35.345Z,99.90
2023-04-06T21:02:03.287Z,99.90
2023-04-06T21:04:31.274Z,99.90
2023-04-06T21:06:59.196Z,99.90
2023-04-06T21:09:28.096Z,99.90
2023-04-06T21:11:55.897Z,99.90
2023-04-06T21:14:23.902Z,99.90
2023-04-06T21:16:55.732Z,99.90
2023-04-06T21:19:23.685Z,99.90
2023-04-06T21:21:51.796Z,99.90
2023-04-06T21:24:19.773Z,99.90
2023-04-06T21:26:47.569Z,99.90
2023-04-06T21:29:15.373Z,99.90
2023-04-06T21:31:43.186Z,99.90
2023-04-06T21:34:13.304Z,99.90
2023-04-06T21:36:42.080Z,99.90
2023-04-06T21:39:10.337Z,99.90
2023-04-06T21:41:40.357Z,99.90
2023-04-06T21:44:08.142Z,99.90
2023-04-06T21:46:35.961Z,99.90
2023-04-06T21:49:03.706Z,99.90
2023-04-06T21:51:32.835Z,99.90
2023-04-06T21:54:01.843Z,99.90
2023-04-06T21:56:29.658Z,99.90
2023-04-06T21:58:57.400Z,99.90
2023-04-06T22:01:25.160Z,99.90
2023-04-06T22:03:56.449Z,99.90
2023-04-06T22:06:25.764Z,99.90
2023-04-06T22:08:56.038Z,99.90
2023-04-06T22:11:23.840Z,99.90
2023-04-06T22:13:51.884Z,99.90
2023-04-06T22:16:19.682Z,99.90
2023-04-06T22:18:47.480Z,99.90
2023-04-06T22:21:15.507Z,99.90
2023-04-06T22:23:43.263Z,99.90
2023-04-06T22:26:13.181Z,99.90
2023-04-06T22:28:40.982Z,99.90
2023-04-06T22:31:08.866Z,99.90
2023-04-06T22:33:36.788Z,99.90
2023-04-06T22:36:04.917Z,99.90
2023-04-06T22:38:32.905Z,99.90
2023-04-06T22:41:00.694Z,99.90
2023-04-06T22:43:30.113Z,99.90
2023-04-06T22:45:58.426Z,99.90
2023-04-06T22:48:26.300Z,99.90
2023-04-06T22:50:54.248Z,99.90
2023-04-06T22:53:21.984Z,99.90
2023-04-06T22:55:49.731Z,99.90
2023-04-06T22:58:17.982Z,99.90
2023-04-06T23:00:47.253Z,99.90
2023-04-06T23:03:15.164Z,99.90
2023-04-06T23:05:43.017Z,99.90
2023-04-06T23:08:10.863Z,99.90
2023-04-06T23:10:41.919Z,99.90
2023-04-06T23:13:09.832Z,99.90
2023-04-06T23:15:38.041Z,99.90
2023-04-06T23:18:07.389Z,99.90
2023-04-06T23:20:35.975Z,99.90
2023-04-06T23:23:04.095Z,99.90
2023-04-06T23:25:31.993Z,99.90
2023-04-06T23:27:59.747Z,99.90
2023-04-06T23:30:27.487Z,99.90
2023-04-06T23:32:55.285Z,99.90
2023-04-06T23:35:24.511Z,99.90
2023-04-06T23:37:52.293Z,99.90
2023-04-06T23:40:20.670Z,99.90
2023-04-06T23:42:48.401Z,99.90
2023-04-06T23:45:16.166Z,99.90
2023-04-06T23:47:45.945Z,99.90
2023-04-06T23:50:13.850Z,99.90
2023-04-06T23:52:42.906Z,99.90
2023-04-06T23:55:11.295Z,99.90
2023-04-06T23:57:39.108Z,99.90
